KHUA

Redstone AAF Airport

Redstone Arsnl Huntsville, Alabama, USA
METAR KHUA 172058Z AUTO 22008KT 10SM SCT043 BKN050 32/22 A3000 RMK AO2 LTG DSNT NE AND SW-W SLP153 T03160222 57028
Observed Flight Rules
Aug-17 @ 20:58 UTC (2 hours ago) Visual Flight Rules
Wind Visibility Clouds
220° at 8 knots 10 miles
  • Scattered at 4,300' AGL
  • Broken at 5,000' AGL
Temperatures Readings
Current 32°C / 90°F
Dewpoint 22°C / 72°F
Humidity 55%
Altimeter 30" Hg
Pressure 1015.3 hPa
Elevation 209
METAR KHUA 172058Z AUTO 22008KT 10SM SCT043 BKN050 32/22 A3000 RMK AO2 LTG DSNT NE AND SW-W SLP153 T03160222 57028
Observed Flight Rules
Aug-17 @ 20:58 UTC
(2 hours ago)
VFR
Wind Visibility
220° at 8 knots 10 miles
Clouds
  • Scattered at 4,300' AGL
  • Broken at 5,000' AGL
Temperature Dewpoint
32°C / 90°F 22°C / 72°F
Humidity Altimeter Pressure
55% 30" Hg 1015.3 hPa